createdAt,value
2018-02-06T00:00:07.311Z,99735
2018-02-06T00:02:11.154Z,99731
2018-02-06T00:04:15.317Z,99731
2018-02-06T00:06:19.132Z,99729
2018-02-06T00:08:22.881Z,99721
2018-02-06T00:10:26.924Z,99723
2018-02-06T00:12:30.853Z,99720
2018-02-06T00:14:34.661Z,99719
2018-02-06T00:16:38.758Z,99718
2018-02-06T00:18:42.513Z,99711
2018-02-06T00:20:46.374Z,99711
2018-02-06T00:22:51.452Z,99704
2018-02-06T00:24:55.570Z,99711
2018-02-06T00:26:59.368Z,99701
2018-02-06T00:29:03.198Z,99700
2018-02-06T00:31:07.755Z,99700
2018-02-06T00:33:11.835Z,99704
2018-02-06T00:35:15.730Z,99699
2018-02-06T00:37:19.594Z,99697
2018-02-06T00:39:23.634Z,99693
2018-02-06T00:41:27.516Z,99684
2018-02-06T00:43:31.370Z,99679
2018-02-06T00:45:35.223Z,99677
2018-02-06T00:47:39.655Z,99674
2018-02-06T00:49:43.560Z,99671
2018-02-06T00:51:47.585Z,99668
2018-02-06T00:53:51.493Z,99664
2018-02-06T00:55:55.546Z,99660
2018-02-06T00:57:59.554Z,99659
2018-02-06T01:00:03.592Z,99651
2018-02-06T01:02:08.037Z,99651
2018-02-06T01:04:12.262Z,99648
2018-02-06T01:06:16.590Z,99644
2018-02-06T01:08:20.379Z,99641
2018-02-06T01:10:28.926Z,99628
2018-02-06T01:12:32.709Z,99626
2018-02-06T01:14:36.607Z,99632
2018-02-06T01:16:40.460Z,99630
2018-02-06T01:18:44.726Z,99621
2018-02-06T01:20:48.910Z,99615
2018-02-06T01:22:52.996Z,99620
2018-02-06T01:24:56.877Z,99615
2018-02-06T01:27:01.480Z,99606
2018-02-06T01:29:05.803Z,99607
2018-02-06T01:31:10.103Z,99605
2018-02-06T01:33:14.236Z,99596
2018-02-06T01:35:18.292Z,99593
2018-02-06T01:37:22.165Z,99593
2018-02-06T01:39:25.981Z,99586
2018-02-06T01:41:29.984Z,99581
2018-02-06T01:43:34.537Z,99581
2018-02-06T01:45:38.706Z,99581
2018-02-06T01:47:44.852Z,99588
2018-02-06T01:49:57.836Z,99581
2018-02-06T01:52:03.267Z,99581
2018-02-06T01:54:07.369Z,99576
2018-02-06T01:56:11.917Z,99573
2018-02-06T01:58:15.997Z,99577
2018-02-06T02:00:19.801Z,99572
2018-02-06T02:02:23.564Z,99569
2018-02-06T02:04:28.139Z,99568
2018-02-06T02:06:32.279Z,99563
2018-02-06T02:08:36.572Z,99569
2018-02-06T02:10:41.387Z,99566
2018-02-06T02:12:45.275Z,99554
2018-02-06T02:14:49.173Z,99557
2018-02-06T02:16:53.023Z,99555
2018-02-06T02:18:57.868Z,99555
2018-02-06T02:21:02.104Z,99556
2018-02-06T02:23:06.296Z,99554
2018-02-06T02:25:11.713Z,99553
2018-02-06T02:27:15.706Z,99550
2018-02-06T02:29:19.885Z,99547
2018-02-06T02:31:23.762Z,99542
2018-02-06T02:33:27.941Z,99536
2018-02-06T02:35:32.079Z,99536
2018-02-06T02:37:36.733Z,99529
2018-02-06T02:39:40.689Z,99541
2018-02-06T04:39:39.854Z,99383
2018-02-06T04:41:43.889Z,99383
2018-02-06T04:43:48.453Z,99379
2018-02-06T04:45:52.512Z,99380
2018-02-06T04:47:56.401Z,99367
2018-02-06T04:50:01.089Z,99367
2018-02-06T04:52:05.409Z,99367
2018-02-06T04:54:09.396Z,99356
2018-02-06T04:56:13.605Z,99358
2018-02-06T04:58:17.635Z,99349
2018-02-06T05:00:22.194Z,99356
2018-02-06T05:02:26.459Z,99349
2018-02-06T05:04:30.682Z,99345
2018-02-06T05:06:34.421Z,99345
2018-02-06T05:08:38.497Z,99342
2018-02-06T05:10:42.253Z,99341
2018-02-06T05:12:46.000Z,99341
2018-02-06T05:14:49.757Z,99351
2018-02-06T05:16:53.807Z,99354
2018-02-06T05:18:58.172Z,99353
2018-02-06T05:21:02.024Z,99352
2018-02-06T05:23:05.988Z,99354
2018-02-06T05:25:10.485Z,99354
2018-02-06T05:27:15.870Z,99354
2018-02-06T05:29:20.339Z,99349
2018-02-06T05:31:24.102Z,99352
2018-02-06T05:33:28.642Z,99343
2018-02-06T05:35:32.780Z,99339
2018-02-06T05:37:37.196Z,99336
2018-02-06T05:39:41.396Z,99332
2018-02-06T05:41:45.478Z,99323
2018-02-06T05:43:49.637Z,99322
2018-02-06T05:45:53.869Z,99322
2018-02-06T05:47:57.710Z,99318
2018-02-06T05:50:02.384Z,99316
2018-02-06T05:52:06.134Z,99314
2018-02-06T05:54:09.887Z,99311
2018-02-06T05:56:13.941Z,99313
2018-02-06T05:58:18.026Z,99307
2018-02-06T06:00:22.225Z,99303
2018-02-06T06:02:26.231Z,99303
2018-02-06T06:04:30.062Z,99300
2018-02-06T06:06:34.398Z,99303
2018-02-06T06:08:38.459Z,99299
2018-02-06T06:10:42.468Z,99294
2018-02-06T06:12:46.387Z,99293
2018-02-06T06:14:50.474Z,99290
2018-02-06T06:16:54.479Z,99290
2018-02-06T06:18:58.295Z,99285
2018-02-06T06:21:02.419Z,99285
2018-02-06T06:23:06.324Z,99284
2018-02-06T06:25:10.210Z,99278
2018-02-06T06:27:14.728Z,99284
2018-02-06T06:29:19.068Z,99284
2018-02-06T06:31:23.048Z,99279
2018-02-06T06:33:26.882Z,99279
2018-02-06T06:35:31.456Z,99281
2018-02-06T06:37:35.314Z,99284
2018-02-06T06:39:39.191Z,99286
2018-02-06T06:41:43.284Z,99289
2018-02-06T06:43:47.074Z,99294
2018-02-06T06:45:51.005Z,99295
2018-02-06T06:47:55.201Z,99293
2018-02-06T06:49:59.881Z,99293
2018-02-06T06:52:04.042Z,99294
2018-02-06T06:54:07.880Z,99293
2018-02-06T06:56:12.627Z,99291
2018-02-06T06:58:16.749Z,99289
2018-02-06T07:00:20.846Z,99290
2018-02-06T07:02:25.527Z,99288
2018-02-06T07:04:29.980Z,99291
2018-02-06T07:06:33.788Z,99293
2018-02-06T07:08:37.571Z,99290
2018-02-06T07:10:41.598Z,99290
2018-02-06T07:12:45.368Z,99289
2018-02-06T07:14:49.523Z,99290
2018-02-06T07:16:53.657Z,99287
2018-02-06T07:18:57.542Z,99289
2018-02-06T07:21:01.322Z,99287
2018-02-06T07:23:05.308Z,99296
2018-02-06T07:25:09.433Z,99297
2018-02-06T07:27:13.383Z,99295
2018-02-06T07:29:17.441Z,99286
2018-02-06T07:31:21.845Z,99283
2018-02-06T07:33:25.977Z,99276
2018-02-06T07:35:29.783Z,99278
2018-02-06T07:37:33.866Z,99277
2018-02-06T07:39:38.226Z,99279
2018-02-06T07:41:42.064Z,99277
2018-02-06T07:43:45.855Z,99275
2018-02-06T07:45:49.625Z,99262
2018-02-06T07:47:53.802Z,99261
2018-02-06T07:49:57.565Z,99270
2018-02-06T07:52:01.404Z,99266
2018-02-06T07:54:05.475Z,99264
2018-02-06T07:56:11.249Z,99263
2018-02-06T07:58:15.056Z,99270
2018-02-06T08:00:19.095Z,99272
2018-02-06T08:02:23.046Z,99274
2018-02-06T08:04:26.899Z,99268
2018-02-06T08:06:31.179Z,99266
2018-02-06T08:08:35.141Z,99263
2018-02-06T08:10:39.096Z,99266
2018-02-06T08:12:43.452Z,99264
2018-02-06T08:14:47.367Z,99264
2018-02-06T08:16:51.243Z,99263
2018-02-06T08:18:55.444Z,99268
2018-02-06T08:20:59.294Z,99263
2018-02-06T08:23:03.271Z,99259
2018-02-06T08:25:07.779Z,99263
2018-02-06T08:27:12.558Z,99255
2018-02-06T08:29:16.491Z,99254
2018-02-06T08:31:22.018Z,99252
2018-02-06T08:33:26.691Z,99244
2018-02-06T08:35:30.577Z,99244
2018-02-06T08:37:37.786Z,99236
2018-02-06T08:43:57.859Z,99210
2018-02-06T08:46:01.718Z,99219
2018-02-06T08:48:05.669Z,99216
2018-02-06T08:50:09.955Z,99218
2018-02-06T08:52:13.782Z,99217
2018-02-06T08:54:17.585Z,99210
2018-02-06T08:56:21.672Z,99214
2018-02-06T08:58:25.755Z,99210
2018-02-06T09:00:29.981Z,99201
2018-02-06T09:02:34.347Z,99194
2018-02-06T09:04:38.114Z,99192
2018-02-06T09:06:41.971Z,99190
2018-02-06T09:08:46.149Z,99190
2018-02-06T09:10:49.917Z,99186
2018-02-06T09:12:53.706Z,99191
2018-02-06T09:14:59.125Z,99188
2018-02-06T09:17:02.969Z,99188
2018-02-06T09:19:06.785Z,99191
2018-02-06T09:21:10.912Z,99189
2018-02-06T09:23:14.827Z,99191
2018-02-06T09:25:18.614Z,99186
2018-02-06T09:27:22.745Z,99182
2018-02-06T09:29:26.688Z,99190
2018-02-06T09:31:30.458Z,99188
2018-02-06T09:33:34.678Z,99189
2018-02-06T09:35:38.519Z,99182
2018-02-06T09:37:42.313Z,99182
2018-02-06T09:39:46.924Z,99180
2018-02-06T09:41:50.810Z,99171
2018-02-06T09:43:54.612Z,99170
2018-02-06T09:45:59.014Z,99159
2018-02-06T09:48:02.793Z,99161
2018-02-06T09:50:06.612Z,99158
2018-02-06T09:52:10.778Z,99148
2018-02-06T09:54:14.538Z,99154
2018-02-06T09:56:18.576Z,99149
2018-02-06T09:58:22.805Z,99152
2018-02-06T10:00:26.666Z,99150
2018-02-06T10:02:30.458Z,99147
2018-02-06T10:04:34.643Z,99154
2018-02-06T10:06:38.503Z,99151
2018-02-06T10:08:42.421Z,99151
2018-02-06T10:10:46.488Z,99150
2018-02-06T10:12:50.333Z,99150
2018-02-06T10:14:54.098Z,99147
2018-02-06T10:16:58.313Z,99148
2018-02-06T10:19:02.148Z,99135
2018-02-06T10:21:05.915Z,99140
2018-02-06T10:23:10.701Z,99149
2018-02-06T10:25:14.468Z,99146
2018-02-06T10:27:18.356Z,99140
2018-02-06T10:29:22.795Z,99139
2018-02-06T10:31:26.677Z,99139
2018-02-06T10:33:31.115Z,99133
2018-02-06T10:35:35.563Z,99136
2018-02-06T10:37:39.381Z,99129
2018-02-06T10:39:43.285Z,99118
2018-02-06T10:41:51.373Z,99109
2018-02-06T10:43:55.212Z,99118
2018-02-06T10:45:59.078Z,99120
2018-02-06T10:48:03.381Z,99123
2018-02-06T10:50:07.200Z,99118
2018-02-06T10:52:10.998Z,99115
2018-02-06T10:54:15.299Z,99117
2018-02-06T10:56:19.056Z,99112
2018-02-06T10:58:22.855Z,99107
2018-02-06T11:00:42.414Z,99103
2018-02-06T11:02:46.227Z,99099
2018-02-06T11:04:50.086Z,99093
2018-02-06T11:06:54.373Z,99085
2018-02-06T11:08:58.242Z,99088
2018-02-06T11:11:02.266Z,99084
2018-02-06T11:13:06.394Z,99068
2018-02-06T11:15:10.337Z,99068
2018-02-06T11:17:14.060Z,99063
2018-02-06T11:19:18.303Z,99054
2018-02-06T11:21:22.100Z,99045
2018-02-06T11:23:25.862Z,99046
2018-02-06T11:25:30.117Z,99051
2018-02-06T11:27:33.876Z,99043
2018-02-06T11:29:37.625Z,99047
2018-02-06T11:31:41.666Z,99052
2018-02-06T11:33:45.794Z,99046
2018-02-06T11:35:49.590Z,99037
2018-02-06T11:37:54.056Z,99046
2018-02-06T11:39:57.854Z,99042
2018-02-06T11:42:01.641Z,99035
2018-02-06T11:44:05.894Z,99045
2018-02-06T11:46:09.710Z,99043
2018-02-06T11:48:13.455Z,99032
2018-02-06T11:50:17.857Z,99033
2018-02-06T11:52:21.642Z,99028
2018-02-06T11:54:25.409Z,99025
2018-02-06T11:56:29.502Z,99027
2018-02-06T11:58:33.513Z,99023
2018-02-06T12:00:37.369Z,99022
2018-02-06T12:02:41.581Z,99022
2018-02-06T12:04:45.504Z,99022
2018-02-06T12:06:49.284Z,99021
2018-02-06T12:08:53.412Z,99022
2018-02-06T12:10:57.222Z,99020
2018-02-06T12:13:00.991Z,99021
2018-02-06T12:15:05.377Z,99011
2018-02-06T12:17:09.186Z,99023
2018-02-06T12:19:12.976Z,99021
2018-02-06T12:21:17.049Z,99020
2018-02-06T12:23:20.861Z,99018
2018-02-06T12:25:24.686Z,99013
2018-02-06T12:27:28.697Z,99004
2018-02-06T12:29:32.512Z,99001
2018-02-06T12:31:36.489Z,99001
2018-02-06T12:33:40.524Z,98994
2018-02-06T12:35:45.090Z,98989
2018-02-06T12:37:48.885Z,98985
2018-02-06T12:39:57.702Z,98980
2018-02-06T12:42:01.828Z,98963
2018-02-06T12:44:05.757Z,98968
2018-02-06T12:46:10.211Z,98963
2018-02-06T12:48:14.254Z,98958
2018-02-06T12:50:18.084Z,98948
2018-02-06T12:52:22.353Z,98952
2018-02-06T12:54:26.287Z,98954
2018-02-06T12:56:30.126Z,98956
2018-02-06T12:58:34.261Z,98953
2018-02-06T13:00:38.027Z,98950
2018-02-06T13:02:41.818Z,98947
2018-02-06T13:04:47.412Z,98943
2018-02-06T13:06:51.490Z,98950
2018-02-06T13:08:55.279Z,98936
2018-02-06T13:10:59.379Z,98936
2018-02-06T13:13:03.660Z,98937
2018-02-06T13:15:07.462Z,98937
2018-02-06T13:17:11.932Z,98927
2018-02-06T13:19:15.919Z,98936
2018-02-06T13:23:27.969Z,98927
2018-02-06T13:25:31.717Z,98933
2018-02-06T13:27:35.572Z,98929
2018-02-06T13:29:39.596Z,98930
2018-02-06T13:31:43.386Z,98921
2018-02-06T13:33:47.172Z,98922
2018-02-06T13:35:51.248Z,98916
2018-02-06T13:37:55.036Z,98915
2018-02-06T13:39:58.881Z,98911
2018-02-06T13:42:02.972Z,98910
2018-02-06T13:44:06.742Z,98909
2018-02-06T13:46:10.532Z,98902
2018-02-06T13:49:38.722Z,98900
2018-02-06T13:51:42.505Z,98892
2018-02-06T13:53:46.554Z,98898
2018-02-06T13:55:50.356Z,98896
2018-02-06T13:57:54.115Z,98895
2018-02-06T13:59:58.125Z,98893
2018-02-06T14:02:01.941Z,98891
2018-02-06T14:04:05.730Z,98896
2018-02-06T14:06:09.877Z,98900
2018-02-06T14:08:14.305Z,98895
2018-02-06T14:10:18.108Z,98892
2018-02-06T14:12:22.215Z,98896
2018-02-06T14:14:26.116Z,98897
2018-02-06T14:16:30.124Z,98899
2018-02-06T14:18:35.444Z,98893
2018-02-06T14:20:40.430Z,98892
2018-02-06T14:22:44.368Z,98888
2018-02-06T14:24:48.441Z,98882
2018-02-06T14:26:52.508Z,98882
2018-02-06T14:28:56.421Z,98875
2018-02-06T14:31:00.595Z,98869
2018-02-06T14:33:04.702Z,98866
2018-02-06T14:35:08.609Z,98864
2018-02-06T14:37:12.756Z,98861
2018-02-06T14:39:16.573Z,98852
2018-02-06T14:41:20.536Z,98862
2018-02-06T14:43:28.763Z,98854
2018-02-06T14:45:33.054Z,98856
2018-02-06T14:47:36.892Z,98850
2018-02-06T14:49:41.048Z,98846
2018-02-06T14:51:44.834Z,98847
2018-02-06T14:53:48.632Z,98842
2018-02-06T14:55:52.902Z,98839
2018-02-06T14:57:56.707Z,98840
2018-02-06T15:00:00.661Z,98831
2018-02-06T15:02:04.829Z,98819
2018-02-06T15:04:08.586Z,98822
2018-02-06T15:06:12.461Z,98821
2018-02-06T15:08:16.581Z,98817
2018-02-06T15:10:20.376Z,98812
2018-02-06T15:12:24.175Z,98808
2018-02-06T15:14:28.284Z,98801
2018-02-06T15:16:32.066Z,98806
2018-02-06T15:18:35.902Z,98805
2018-02-06T15:20:40.054Z,98806
2018-02-06T15:22:44.057Z,98795
2018-02-06T15:24:47.884Z,98795
2018-02-06T15:26:52.344Z,98795
2018-02-06T15:28:56.127Z,98798
2018-02-06T15:30:59.999Z,98799
2018-02-06T15:33:04.529Z,98793
2018-02-06T15:35:08.325Z,98793
2018-02-06T15:37:12.153Z,98794
2018-02-06T15:39:16.273Z,98788
2018-02-06T15:41:20.449Z,98782
2018-02-06T15:43:24.325Z,98784
2018-02-06T15:45:28.550Z,98789
2018-02-06T15:47:32.425Z,98791
2018-02-06T15:49:36.215Z,98790
2018-02-06T15:51:41.013Z,98797
2018-02-06T15:53:44.961Z,98811
2018-02-06T15:55:48.739Z,98831
2018-02-06T15:57:53.001Z,98838
2018-02-06T15:59:56.730Z,98842
2018-02-06T16:02:00.661Z,98848
2018-02-06T16:04:04.784Z,98845
2018-02-06T16:06:08.648Z,98843
2018-02-06T16:08:12.421Z,98844
2018-02-06T16:10:16.515Z,98845
2018-02-06T16:12:20.306Z,98850
2018-02-06T16:14:24.055Z,98852
2018-02-06T16:16:28.190Z,98848
2018-02-06T16:18:31.966Z,98846
2018-02-06T16:20:35.736Z,98841
2018-02-06T16:22:39.957Z,98830
2018-02-06T16:24:43.745Z,98844
2018-02-06T16:26:47.525Z,98842
2018-02-06T16:28:51.761Z,98842
2018-02-06T16:30:55.576Z,98842
2018-02-06T16:32:59.365Z,98829
2018-02-06T16:35:03.639Z,98818
2018-02-06T16:37:07.454Z,98820
2018-02-06T16:39:11.242Z,98816
2018-02-06T16:41:15.576Z,98811
2018-02-06T16:43:19.320Z,98808
2018-02-06T16:45:23.124Z,98804
2018-02-06T16:47:27.209Z,98803
2018-02-06T16:49:30.998Z,98800
2018-02-06T16:51:35.322Z,98805
2018-02-06T16:53:39.423Z,98798
2018-02-06T16:57:54.117Z,98799
2018-02-06T16:59:58.232Z,98798
2018-02-06T17:02:02.528Z,98807
2018-02-06T17:04:06.639Z,98811
2018-02-06T17:06:10.872Z,98817
2018-02-06T17:08:14.894Z,98826
2018-02-06T17:10:18.744Z,98831
2018-02-06T17:12:22.997Z,98822
2018-02-06T17:14:26.837Z,98833
2018-02-06T17:16:31.032Z,98831
2018-02-06T17:18:35.485Z,98832
2018-02-06T17:20:39.616Z,98834
2018-02-06T17:22:43.510Z,98834
2018-02-06T17:24:48.355Z,98834
2018-02-06T17:26:52.661Z,98838
2018-02-06T17:28:56.508Z,98842
2018-02-06T17:31:01.311Z,98831
2018-02-06T17:33:05.128Z,98848
2018-02-06T17:35:17.620Z,98847
2018-02-06T17:37:21.895Z,98855
2018-02-06T17:39:25.979Z,98848
2018-02-06T17:41:31.982Z,98843
2018-02-06T17:43:36.067Z,98827
2018-02-06T17:45:40.026Z,98825
2018-02-06T17:47:45.339Z,98819
2018-02-06T17:49:49.429Z,98814
2018-02-06T17:51:53.201Z,98806
2018-02-06T17:53:57.388Z,98813
2018-02-06T17:56:02.396Z,98806
2018-02-06T17:58:06.209Z,98809
2018-02-06T18:00:10.017Z,98804
2018-02-06T18:02:14.094Z,98808
2018-02-06T18:04:17.905Z,98800
2018-02-06T18:06:21.885Z,98795
2018-02-06T18:08:26.098Z,98795
2018-02-06T18:10:29.912Z,98796
2018-02-06T18:12:33.766Z,98799
2018-02-06T18:14:37.911Z,98789
2018-02-06T18:16:41.770Z,98788
2018-02-06T18:18:45.570Z,98780
2018-02-06T18:20:49.919Z,98781
2018-02-06T18:22:53.748Z,98790
2018-02-06T18:24:57.716Z,98786
2018-02-06T18:27:02.129Z,98773
2018-02-06T18:29:05.906Z,98773
2018-02-06T18:31:09.736Z,98775
2018-02-06T18:33:14.158Z,98787
2018-02-06T18:35:18.055Z,98794
2018-02-06T18:37:22.124Z,98801
2018-02-06T18:39:26.252Z,98800
2018-02-06T18:41:30.068Z,98805
2018-02-06T18:43:35.405Z,98806
2018-02-06T18:45:39.490Z,98803
2018-02-06T18:47:43.476Z,98784
2018-02-06T18:49:47.281Z,98799
2018-02-06T18:51:51.450Z,98805
2018-02-06T18:53:55.254Z,98810
2018-02-06T18:55:59.157Z,98815
2018-02-06T18:58:03.229Z,98812
2018-02-06T19:00:07.114Z,98819
2018-02-06T19:02:11.376Z,98816
2018-02-06T19:04:15.498Z,98804
2018-02-06T19:06:19.323Z,98807
2018-02-06T19:08:23.561Z,98796
2018-02-06T19:10:28.053Z,98800
2018-02-06T19:12:31.900Z,98802
2018-02-06T19:14:36.358Z,98800
2018-02-06T19:16:40.471Z,98801
2018-02-06T19:18:44.310Z,98803
2018-02-06T19:20:52.962Z,98798
2018-02-06T19:22:57.405Z,98802
2018-02-06T19:25:01.265Z,98813
2018-02-06T19:27:05.171Z,98814
2018-02-06T19:29:09.523Z,98813
2018-02-06T19:31:13.400Z,98805
2018-02-06T19:33:17.230Z,98803
2018-02-06T19:35:21.811Z,98805
2018-02-06T19:37:25.602Z,98817
2018-02-06T19:39:29.353Z,98826
2018-02-06T19:41:34.001Z,98820
2018-02-06T19:43:37.834Z,98815
2018-02-06T19:45:42.172Z,98819
2018-02-06T19:47:46.343Z,98818
2018-02-06T19:49:50.166Z,98813
2018-02-06T19:51:53.963Z,98809
2018-02-06T19:53:58.547Z,98807
2018-02-06T19:56:03.229Z,98806
2018-02-06T19:58:07.356Z,98808
2018-02-06T20:00:11.475Z,98802
2018-02-06T20:02:15.625Z,98808
2018-02-06T20:04:19.606Z,98805
2018-02-06T20:06:24.034Z,98811
2018-02-06T20:08:27.904Z,98802
2018-02-06T20:10:32.061Z,98806
2018-02-06T20:12:36.126Z,98805
2018-02-06T20:48:36.986Z,98786
2018-02-06T20:50:40.746Z,98780
2018-02-06T20:52:44.718Z,98776
2018-02-06T20:54:49.154Z,98778
2018-02-06T20:56:52.915Z,98771
2018-02-06T20:58:56.774Z,98770
2018-02-06T21:01:00.899Z,98771
2018-02-06T21:03:11.077Z,98769
2018-02-06T21:05:15.350Z,98761
2018-02-06T21:07:19.463Z,98764
2018-02-06T21:09:23.679Z,98764
2018-02-06T21:11:27.728Z,98766
2018-02-06T21:13:37.139Z,98760
2018-02-06T21:15:41.120Z,98752
2018-02-06T21:17:45.169Z,98753
2018-02-06T21:19:49.864Z,98753
2018-02-06T21:21:53.678Z,98752
2018-02-06T21:23:57.570Z,98746
2018-02-06T21:26:01.707Z,98745
2018-02-06T21:28:06.194Z,98748
2018-02-06T21:30:10.724Z,98751
2018-02-06T21:32:14.825Z,98755
2018-02-06T21:34:18.765Z,98766
2018-02-06T21:36:22.757Z,98763
2018-02-06T21:38:27.452Z,98761
2018-02-06T21:40:31.330Z,98758
2018-02-06T21:42:35.443Z,98756
2018-02-06T21:44:39.537Z,98766
2018-02-06T21:46:51.866Z,98773
2018-02-06T21:48:55.740Z,98777
2018-02-06T21:51:05.307Z,98773
2018-02-06T21:53:23.976Z,98774
2018-02-06T21:55:27.955Z,98779
2018-02-06T21:57:32.369Z,98781
2018-02-06T21:59:36.334Z,98774
2018-02-06T22:01:40.175Z,98777
2018-02-06T22:03:44.950Z,98771
2018-02-06T22:05:49.055Z,98765
2018-02-06T22:10:01.745Z,98770
2018-02-06T22:12:06.046Z,98770
2018-02-06T22:14:10.384Z,98774
2018-02-06T22:16:14.853Z,98773
2018-02-06T22:18:18.646Z,98772
2018-02-06T22:20:22.834Z,98776
2018-02-06T22:22:27.389Z,98771
2018-02-06T22:24:31.772Z,98766
2018-02-06T22:26:35.989Z,98767
2018-02-06T22:28:40.094Z,98767
2018-02-06T22:30:44.044Z,98767
2018-02-06T22:32:47.960Z,98758
2018-02-06T22:34:52.465Z,98759
2018-02-06T22:36:56.378Z,98760
2018-02-06T22:39:01.133Z,98765
2018-02-06T22:41:05.396Z,98765
2018-02-06T22:43:09.168Z,98761
2018-02-06T22:45:13.076Z,98765
2018-02-06T22:47:17.648Z,98767
2018-02-06T22:49:21.700Z,98770
2018-02-06T22:51:25.528Z,98770
2018-02-06T22:53:29.617Z,98769
2018-02-06T22:55:33.535Z,98769
2018-02-06T22:57:37.348Z,98769
2018-02-06T22:59:41.478Z,98773
2018-02-06T23:01:45.300Z,98771
2018-02-06T23:03:49.045Z,98781
2018-02-06T23:05:53.202Z,98782
2018-02-06T23:07:56.985Z,98786
2018-02-06T23:10:06.638Z,98784
2018-02-06T23:12:11.140Z,98789
2018-02-06T23:14:15.066Z,98788
2018-02-06T23:16:18.909Z,98788
2018-02-06T23:18:23.443Z,98782
2018-02-06T23:20:27.578Z,98791
2018-02-06T23:22:31.789Z,98794
2018-02-06T23:24:36.107Z,98796
2018-02-06T23:26:39.897Z,98801
2018-02-06T23:28:43.721Z,98803
2018-02-06T23:30:48.085Z,98808
2018-02-06T23:32:51.950Z,98807
2018-02-06T23:34:55.692Z,98808
2018-02-06T23:36:59.782Z,98802
2018-02-06T23:39:03.578Z,98807
2018-02-06T23:41:07.333Z,98806
2018-02-06T23:43:11.653Z,98804
2018-02-06T23:45:15.914Z,98807
2018-02-06T23:47:19.978Z,98808
2018-02-06T23:49:24.277Z,98804
2018-02-06T23:51:28.057Z,98805
2018-02-06T23:53:31.814Z,98803
2018-02-06T23:55:36.166Z,98803
2018-02-06T23:57:40.181Z,98804
2018-02-06T23:59:44.287Z,98796
